Aviation Digital Data Service (ADDS)

Output produced by TAFs form (2220 UTC 02 December 2016)
found at http://aviationweather.gov/adds/tafs/
 
KDMN 021739Z 0218/0318 21007KT P6SM FEW050 SCT120 SCT220 
     FM030300 05007KT P6SM SCT050 BKN100 BKN200 
     FM030600 06010G20KT P6SM VCSH FEW030 BKN050 OVC100 
     FM030900 06012G23KT P6SM -SHRA SCT030 OVC080 
     FM031200 05015G27KT 5SM -RA SCT020 BKN030 OVC060 
     TEMPO 0312/0316 3SM RA OVC020